CheckWX is a tool to help pilots better visualize weather data.  It is not intended as a substitute for an official pre-flight weather briefing.

05:24:10 UTC

KOGB METAR
Orangeburg Municipal Airport
Orangeburg, South Carolina, USA
Current

22 mins ago

KOGB 240502Z AUTO 06007KT 10SM SCT029 SCT047 BKN075 08/03 A3015 RMK AO2 T00830033
Observed
Jan-24 @ 05:02 UTC
Wind
  • 060° at 7 KTS
Visibility
10 SM
Flight Rules
VFR
Cloud Levels
  • Scattered at 2,900' AGL
  • Scattered at 4,700' AGL
  • Broken at 7,500' AGL
Temperature
C / 46°F
Dewpoint
C / 37°F
Humidity
71%
Altimeter
30.15" Hg
Pressure
1021.02 hPa
Previous

31 mins ago

KOGB 240453Z AUTO 05006KT 10SM BKN029 BKN047 OVC070 08/03 A3016 RMK AO2 SLP212 T00830033 401000022
Observed
Jan-24 @ 04:53 UTC
Wind
  • 050° at 6 KTS
Visibility
10 SM
Flight Rules
MVFR
Cloud Levels
  • Broken at 2,900' AGL
  • Broken at 4,700' AGL
  • Overcast at 7,000' AGL
Temperature
C / 46°F
Dewpoint
C / 37°F
Humidity
71%
Altimeter
30.16" Hg
Pressure
1021.32 hPa
Previous

47 mins ago

KOGB 240437Z AUTO 06005KT 10SM BKN029 OVC036 08/03 A3016 RMK AO2 T00830033
Observed
Jan-24 @ 04:37 UTC
Wind
  • 060° at 5 KTS
Visibility
10 SM
Flight Rules
MVFR
Cloud Levels
  • Broken at 2,900' AGL
  • Overcast at 3,600' AGL
Temperature
C / 46°F
Dewpoint
C / 37°F
Humidity
71%
Altimeter
30.16" Hg
Pressure
1021.32 hPa